Time;durP1;ratioP1;P1;durP2;ratioP2;P2;SDS_P1;SDS_P2;PMS_P1;PMS_P2;Temp;Humidity;BMP_temperature;BMP_pressure;BME280_temperature;BME280_humidity;BME280_pressure;Samples;Min_cycle;Max_cycle;Signal;HPM_P1;HPM_P2
2023/07/18 00:02:16;;;;;;;2.43;1.00;;;;;;;-145.18;100.00;46691.66;5073797;28;20471;-60
2023/07/18 00:04:42;;;;;;;4.73;1.53;;;;;;;-145.18;100.00;46685.78;5073967;28;20052;-60
2023/07/18 00:07:07;;;;;;;6.67;1.40;;;;;;;-145.18;100.00;46693.59;5073926;28;20032;-60
2023/07/18 00:09:33;;;;;;;2.50;1.00;;;;;;;-145.18;100.00;46689.69;5073834;28;20533;-60
2023/07/18 00:11:59;;;;;;;1.83;1.00;;;;;;;-145.18;100.00;46689.69;5073237;28;20032;-60
2023/07/18 00:14:25;;;;;;;4.33;1.03;;;;;;;-145.18;100.00;46676.03;5073677;28;20404;-60
2023/07/18 00:16:50;;;;;;;2.90;1.30;;;;;;;-145.18;100.00;46676.03;5073329;28;20028;-59
2023/07/18 00:19:15;;;;;;;3.00;1.20;;;;;;;-145.18;100.00;46681.88;5072344;28;20048;-60
2023/07/18 00:21:41;;;;;;;4.13;1.10;;;;;;;-145.18;100.00;46660.41;5075527;28;20500;-60
2023/07/18 00:24:06;;;;;;;7.27;1.70;;;;;;;-145.18;100.00;46672.13;5073874;28;20057;-59
2023/07/18 00:26:32;;;;;;;4.30;1.50;;;;;;;-145.18;100.00;46662.34;5072216;28;20040;-60
2023/07/18 00:28:58;;;;;;;9.53;1.77;;;;;;;-145.18;100.00;46668.22;5073447;28;20447;-60
2023/07/18 00:31:23;;;;;;;6.40;2.20;;;;;;;-145.18;100.00;46672.13;5072703;28;20107;-60
2023/07/18 00:33:49;;;;;;;4.67;1.23;;;;;;;-145.18;100.00;46666.25;5073806;28;20206;-60
2023/07/18 00:36:14;;;;;;;5.03;1.20;;;;;;;-145.18;100.00;46664.31;5072746;28;20701;-60
2023/07/18 00:38:40;;;;;;;4.13;1.40;;;;;;;-145.18;100.00;46662.34;5072911;28;20036;-60
2023/07/18 00:41:06;;;;;;;4.57;1.60;;;;;;;-145.18;100.00;46662.34;5068394;28;20036;-60
2023/07/18 00:43:33;;;;;;;5.00;1.53;;;;;;;-145.18;100.00;46664.31;5072050;28;20481;-59
2023/07/18 00:45:59;;;;;;;2.80;1.30;;;;;;;-145.18;100.00;46662.34;5073266;28;20036;-60
2023/07/18 00:48:32;;;;;;;9.73;1.83;;;;;;;-145.18;100.00;46660.41;5073003;28;20395;-59
2023/07/18 00:50:59;;;;;;;6.00;1.37;;;;;;;-145.18;100.00;46662.34;5070495;28;20024;-60
2023/07/18 00:53:25;;;;;;;6.00;1.50;;;;;;;-145.18;100.00;46656.50;5073543;28;20028;-60
2023/07/18 00:55:52;;;;;;;8.20;2.03;;;;;;;-145.18;100.00;46656.50;5073098;28;20032;-59
2023/07/18 00:58:18;;;;;;;2.70;1.43;;;;;;;-145.18;100.00;46658.44;5072321;28;20613;-59
2023/07/18 01:00:44;;;;;;;6.03;2.00;;;;;;;-145.18;100.00;46658.44;5067635;28;20111;-59
2023/07/18 01:03:09;;;;;;;4.90;1.60;;;;;;;-145.18;100.00;46668.22;5073024;28;20036;-64
2023/07/18 01:05:35;;;;;;;5.53;1.60;;;;;;;-145.18;100.00;46662.34;5072845;28;20028;-64
2023/07/18 01:08:03;;;;;;;8.73;2.10;;;;;;;-145.18;100.00;46662.34;5072683;28;20749;-64
2023/07/18 01:10:28;;;;;;;6.60;1.60;;;;;;;-145.18;100.00;46658.44;5071931;28;20511;-64
2023/07/18 01:12:56;;;;;;;10.03;1.60;;;;;;;-145.18;100.00;46656.50;5070870;28;20056;-64
2023/07/18 01:15:22;;;;;;;8.13;1.87;;;;;;;-145.18;100.00;46656.50;5072353;28;20074;-64
2023/07/18 01:17:49;;;;;;;7.10;1.83;;;;;;;-145.18;100.00;46656.50;5072257;28;20097;-64
2023/07/18 01:20:18;;;;;;;4.53;1.63;;;;;;;-145.18;100.00;46656.50;5072251;28;20107;-64
2023/07/18 01:22:58;;;;;;;3.30;1.70;;;;;;;-145.18;100.00;46650.63;5072567;28;20059;-64
2023/07/18 01:25:24;;;;;;;4.57;1.70;;;;;;;-145.18;100.00;46656.50;5070039;28;20111;-64
2023/07/18 01:27:52;;;;;;;6.70;1.93;;;;;;;-145.18;100.00;46652.59;5071711;28;20123;-64
2023/07/18 01:30:20;;;;;;;9.73;1.90;;;;;;;-145.18;100.00;46652.59;5072157;28;20472;-65
2023/07/18 01:32:48;;;;;;;4.63;2.23;;;;;;;-145.18;100.00;46652.59;5071687;28;20468;-64
2023/07/18 01:35:15;;;;;;;6.57;1.77;;;;;;;-145.18;100.00;46658.44;5069203;28;20064;-65
2023/07/18 01:37:44;;;;;;;8.53;2.20;;;;;;;-145.18;100.00;46652.59;5072209;28;20050;-64
2023/07/18 01:40:14;;;;;;;6.97;1.70;;;;;;;-145.18;100.00;46654.53;5072009;28;20450;-65
2023/07/18 01:42:40;;;;;;;9.30;1.83;;;;;;;-145.18;100.00;46654.53;5071734;28;20398;-64
2023/07/18 01:45:06;;;;;;;7.30;2.07;;;;;;;-145.18;100.00;46650.63;5072068;28;20036;-64
2023/07/18 01:47:32;;;;;;;6.27;1.93;;;;;;;-145.18;100.00;46652.59;5071877;28;20117;-64
2023/07/18 01:49:59;;;;;;;5.30;1.90;;;;;;;-145.18;100.00;46650.63;5071742;28;20107;-64
2023/07/18 01:52:27;;;;;;;6.43;1.60;;;;;;;-145.18;100.00;46650.63;5071754;28;20032;-64
2023/07/18 01:54:54;;;;;;;8.23;1.83;;;;;;;-145.18;100.00;46652.59;5070612;28;20032;-64
2023/07/18 01:57:19;;;;;;;10.17;2.17;;;;;;;-145.18;100.00;46648.69;5071743;28;20051;-64
2023/07/18 01:59:45;;;;;;;5.30;2.20;;;;;;;-145.18;100.00;46648.69;5071284;28;20032;-64
2023/07/18 02:02:10;;;;;;;6.63;1.73;;;;;;;-145.18;100.00;46648.69;5071438;28;20507;-64
2023/07/18 02:04:36;;;;;;;5.60;1.53;;;;;;;-145.18;100.00;46652.59;5071831;28;20067;-65
2023/07/18 02:07:01;;;;;;;5.27;1.83;;;;;;;-145.18;100.00;46644.78;5071487;28;20488;-64
2023/07/18 02:09:28;;;;;;;5.93;1.90;;;;;;;-145.18;100.00;46648.69;5071732;28;20052;-64
2023/07/18 02:11:53;;;;;;;7.43;1.90;;;;;;;-145.18;100.00;46648.69;5071807;28;20095;-64
2023/07/18 02:14:20;;;;;;;4.30;1.80;;;;;;;-145.18;100.00;46654.53;5071470;28;20036;-60
2023/07/18 02:16:45;;;;;;;7.27;2.17;;;;;;;-145.18;100.00;46646.72;5070791;28;20024;-60
2023/07/18 02:19:11;;;;;;;4.80;2.70;;;;;;;-145.18;100.00;46652.59;5069989;28;20073;-60
2023/07/18 02:21:36;;;;;;;4.90;1.93;;;;;;;-145.18;100.00;46656.50;5071620;28;20485;-60
2023/07/18 02:24:03;;;;;;;5.57;2.10;;;;;;;-145.18;100.00;46648.69;5071000;28;20087;-60
2023/07/18 02:26:29;;;;;;;8.80;2.03;;;;;;;-145.18;100.00;46654.53;5069614;28;20028;-60
2023/07/18 02:28:55;;;;;;;4.20;1.77;;;;;;;-145.18;100.00;46648.69;5071019;28;20462;-60
2023/07/18 02:31:21;;;;;;;6.53;1.80;;;;;;;-145.18;100.00;46646.72;5071107;28;20587;-59
2023/07/18 02:33:46;;;;;;;4.67;2.10;;;;;;;-145.18;100.00;46656.50;5069451;28;20152;-59
2023/07/18 02:36:12;;;;;;;6.10;1.90;;;;;;;-145.18;100.00;46648.69;5069683;28;20111;-60
2023/07/18 02:38:37;;;;;;;5.63;1.80;;;;;;;-145.18;100.00;46652.59;5071473;28;20854;-59
2023/07/18 02:41:03;;;;;;;6.23;2.33;;;;;;;-145.18;100.00;46650.63;5071580;28;20029;-60
2023/07/18 02:43:28;;;;;;;5.60;1.73;;;;;;;-145.18;100.00;46656.50;5071197;28;20028;-60
2023/07/18 02:45:53;;;;;;;7.20;2.70;;;;;;;-145.18;100.00;46656.50;5071285;28;20055;-60
2023/07/18 02:48:19;;;;;;;4.10;1.70;;;;;;;-145.18;100.00;46652.59;5071522;28;20039;-59
2023/07/18 02:50:44;;;;;;;8.30;1.70;;;;;;;-145.18;100.00;46658.44;5070437;28;20062;-60
2023/07/18 02:53:10;;;;;;;4.77;1.60;;;;;;;-145.18;100.00;46662.34;5070989;28;20399;-59
2023/07/18 02:55:35;;;;;;;4.53;1.77;;;;;;;-145.18;100.00;46660.41;5070916;28;20032;-60
2023/07/18 02:58:01;;;;;;;3.43;1.90;;;;;;;-145.18;100.00;46654.53;5070381;28;20111;-60
2023/07/18 03:00:27;;;;;;;3.50;2.03;;;;;;;-145.18;100.00;46656.50;5069483;28;20055;-59
2023/07/18 03:02:52;;;;;;;7.77;2.13;;;;;;;-145.18;100.00;46652.59;5070610;28;20088;-60
2023/07/18 03:05:19;;;;;;;3.27;1.90;;;;;;;-145.18;100.00;46650.63;5069761;28;20106;-60
2023/07/18 03:07:49;;;;;;;5.63;1.80;;;;;;;-145.18;100.00;46660.41;5070522;28;20559;-60
2023/07/18 03:10:15;;;;;;;2.80;1.50;;;;;;;-145.18;100.00;46652.59;5070640;28;20428;-59
2023/07/18 03:12:41;;;;;;;3.40;1.73;;;;;;;-145.18;100.00;46654.53;5074104;28;20055;-59
2023/07/18 03:15:09;;;;;;;5.20;2.00;;;;;;;-145.18;100.00;46650.63;5074510;28;20064;-60
2023/07/18 03:17:36;;;;;;;5.57;2.10;;;;;;;-145.18;100.00;46656.50;5075240;28;20024;-60
2023/07/18 03:20:08;;;;;;;5.23;1.70;;;;;;;-145.18;100.00;46654.53;5074902;28;20033;-60
2023/07/18 03:22:34;;;;;;;8.80;2.30;;;;;;;-145.18;100.00;46660.41;5073963;28;20512;-60
2023/07/18 03:25:07;;;;;;;7.30;2.30;;;;;;;-145.18;100.00;46654.53;5075009;28;20021;-60
2023/07/18 03:27:32;;;;;;;3.17;1.87;;;;;;;-145.18;100.00;46654.53;5072270;28;20107;-60
2023/07/18 03:29:58;;;;;;;6.43;2.00;;;;;;;-145.18;100.00;46650.63;5075278;28;20115;-60
2023/07/18 03:32:23;;;;;;;6.50;2.30;;;;;;;-145.18;100.00;46654.53;5073324;28;20408;-59
2023/07/18 03:34:49;;;;;;;3.80;2.10;;;;;;;-145.18;100.00;46660.41;5074599;28;20035;-59
2023/07/18 03:37:14;;;;;;;3.57;1.73;;;;;;;-145.18;100.00;46652.59;5072967;28;20087;-60
2023/07/18 03:39:40;;;;;;;4.30;1.77;;;;;;;-145.18;100.00;46658.44;5073097;28;20040;-59
2023/07/18 03:42:06;;;;;;;8.47;2.53;;;;;;;-145.18;100.00;46662.34;5074399;28;20044;-59
2023/07/18 03:44:31;;;;;;;3.33;1.77;;;;;;;-145.18;100.00;46658.44;5074817;28;20025;-59
2023/07/18 03:46:57;;;;;;;5.47;2.10;;;;;;;-145.18;100.00;46650.63;5074473;28;20032;-60
2023/07/18 03:49:22;;;;;;;3.90;1.87;;;;;;;-145.18;100.00;46654.53;5072639;28;20036;-59
2023/07/18 03:51:47;;;;;;;6.67;2.53;;;;;;;-145.18;100.00;46648.69;5072435;28;20024;-60
2023/07/18 03:54:13;;;;;;;6.47;2.57;;;;;;;-145.18;100.00;46652.59;5074201;28;20777;-59
2023/07/18 03:56:38;;;;;;;4.90;1.80;;;;;;;-145.18;100.00;46654.53;5073897;28;20166;-60
2023/07/18 03:59:03;;;;;;;4.23;1.97;;;;;;;-145.18;100.00;46656.50;5072872;28;20107;-60
2023/07/18 04:01:29;;;;;;;3.83;1.80;;;;;;;-145.18;100.00;46652.59;5073790;28;20133;-59
2023/07/18 04:03:54;;;;;;;5.57;2.40;;;;;;;-145.18;100.00;46652.59;5074373;28;20043;-59
2023/07/18 04:06:20;;;;;;;4.83;2.00;;;;;;;-145.18;100.00;46660.41;5074264;28;20037;-59
2023/07/18 04:08:45;;;;;;;5.50;2.50;;;;;;;-145.18;100.00;46654.53;5073724;28;20469;-60
2023/07/18 04:11:10;;;;;;;4.83;2.20;;;;;;;-145.18;100.00;46656.50;5073512;28;20369;-59
2023/07/18 04:13:36;;;;;;;6.93;2.70;;;;;;;-145.18;100.00;46652.59;5074257;28;20384;-60
2023/07/18 04:16:01;;;;;;;9.63;2.40;;;;;;;-145.18;100.00;46652.59;5072010;28;20031;-60
2023/07/18 04:18:27;;;;;;;5.77;2.80;;;;;;;-145.18;100.00;46654.53;5074101;28;20037;-60
2023/07/18 04:21:01;;;;;;;5.33;2.33;;;;;;;-145.18;100.00;46656.50;5071895;28;20078;-60
2023/07/18 04:23:27;;;;;;;7.97;3.07;;;;;;;-145.18;100.00;46654.53;5073088;28;20059;-59
2023/07/18 04:25:55;;;;;;;3.43;2.03;;;;;;;-145.18;100.00;46656.50;5071084;28;20028;-59
2023/07/18 04:28:21;;;;;;;4.77;2.40;;;;;;;-145.18;100.00;46656.50;5070736;28;20384;-60
2023/07/18 04:30:46;;;;;;;6.67;2.33;;;;;;;-145.18;100.00;46650.63;5073035;28;20029;-59
2023/07/18 04:33:12;;;;;;;4.10;2.50;;;;;;;-145.18;100.00;46656.50;5072300;28;20115;-64
2023/07/18 04:35:39;;;;;;;6.97;2.33;;;;;;;-145.18;100.00;46656.50;5068544;28;20036;-65
2023/07/18 04:38:05;;;;;;;5.37;2.47;;;;;;;-145.18;100.00;46658.44;5070892;28;20028;-65
2023/07/18 04:40:30;;;;;;;6.07;2.63;;;;;;;-145.18;100.00;46654.53;5054560;28;20479;-65
2023/07/18 04:42:56;;;;;;;4.83;2.63;;;;;;;-145.18;100.00;46650.63;5071731;28;20040;-65
2023/07/18 04:45:21;;;;;;;6.17;2.23;;;;;;;-145.18;100.00;46654.53;5070096;28;20152;-65
2023/07/18 04:47:47;;;;;;;7.27;2.60;;;;;;;-145.18;100.00;46656.50;5072165;28;20040;-65
2023/07/18 04:50:12;;;;;;;10.73;2.67;;;;;;;-145.18;100.00;46656.50;5066564;28;20044;-65
2023/07/18 04:52:38;;;;;;;3.77;2.30;;;;;;;-145.18;100.00;46654.53;5069338;28;20032;-65
2023/07/18 04:55:03;;;;;;;4.80;2.60;;;;;;;-145.18;100.00;46656.50;5070542;28;20024;-65
2023/07/18 04:57:29;;;;;;;5.67;2.80;;;;;;;-145.18;100.00;46656.50;5071584;28;20134;-65
2023/07/18 04:59:54;;;;;;;8.63;2.83;;;;;;;-145.18;100.00;46658.44;5073346;28;20032;-65
2023/07/18 05:02:19;;;;;;;7.60;2.60;;;;;;;-145.18;100.00;46658.44;5070976;28;20060;-65
2023/07/18 05:04:45;;;;;;;4.47;2.63;;;;;;;-145.18;100.00;46662.34;5072022;28;20407;-65
2023/07/18 05:07:10;;;;;;;5.30;2.80;;;;;;;-145.18;100.00;46654.53;5072272;28;20094;-65
2023/07/18 05:09:36;;;;;;;7.87;2.90;;;;;;;-145.18;100.00;46658.44;5072300;28;20040;-65
2023/07/18 05:12:01;;;;;;;6.20;2.50;;;;;;;-145.18;100.00;46650.63;5074207;28;20082;-65
2023/07/18 05:14:26;;;;;;;5.67;2.73;;;;;;;-145.18;100.00;46650.63;5072624;28;20119;-65
2023/07/18 05:16:52;;;;;;;5.60;2.80;;;;;;;-145.18;100.00;46654.53;5072049;28;20044;-65
2023/07/18 05:19:17;;;;;;;5.73;2.77;;;;;;;-145.18;100.00;46652.59;5067210;28;20040;-65
2023/07/18 05:21:42;;;;;;;10.00;3.10;;;;;;;-145.18;100.00;46650.63;5067066;28;20484;-65
2023/07/18 05:24:08;;;;;;;4.20;2.37;;;;;;;-145.18;100.00;46646.72;5067689;28;20052;-65
2023/07/18 05:26:33;;;;;;;10.13;3.20;;;;;;;-145.18;100.00;46646.72;5068520;28;20036;-65
2023/07/18 05:28:59;;;;;;;12.20;3.33;;;;;;;-145.18;100.00;46650.63;5067481;28;20373;-65
2023/07/18 05:31:24;;;;;;;9.83;3.50;;;;;;;-145.18;100.00;46650.63;5070058;28;20033;-65
2023/07/18 05:33:50;;;;;;;5.80;2.83;;;;;;;-145.18;100.00;46644.78;5070256;28;20571;-65
2023/07/18 05:36:16;;;;;;;7.73;2.90;;;;;;;-145.18;100.00;46644.78;5072922;28;20025;-65
2023/07/18 05:38:42;;;;;;;5.83;2.67;;;;;;;-145.18;100.00;46646.72;5064784;28;20040;-65
2023/07/18 05:41:08;;;;;;;6.83;3.43;;;;;;;-145.18;100.00;46648.69;5072625;28;20029;-65
2023/07/18 05:43:33;;;;;;;6.97;2.57;;;;;;;-145.18;100.00;46644.78;5068086;28;20035;-65
2023/07/18 05:45:59;;;;;;;16.23;3.30;;;;;;;-145.18;100.00;46644.78;5072019;28;20123;-65
2023/07/18 05:48:24;;;;;;;6.87;2.83;;;;;;;-145.18;100.00;46644.78;5071477;28;20044;-65
2023/07/18 05:50:50;;;;;;;13.30;3.47;;;;;;;-145.18;100.00;46644.78;5071918;28;20033;-65
2023/07/18 05:53:15;;;;;;;9.37;3.03;;;;;;;-145.18;100.00;46642.81;5073358;28;20033;-65
2023/07/18 05:55:40;;;;;;;13.47;3.53;;;;;;;-145.18;100.00;46644.78;5072540;28;20492;-65
2023/07/18 05:58:07;;;;;;;11.83;2.80;;;;;;;-145.18;100.00;46640.88;5071368;28;20067;-65
2023/07/18 06:00:32;;;;;;;10.63;3.00;;;;;;;-145.18;100.00;46638.91;5069776;28;20036;-65
2023/07/18 06:02:58;;;;;;;8.40;3.27;;;;;;;-145.18;100.00;46636.94;5075903;28;20032;-65
2023/07/18 06:05:23;;;;;;;7.27;2.87;;;;;;;-145.18;100.00;46642.81;5072384;28;20060;-65
2023/07/18 06:07:48;;;;;;;10.17;2.97;;;;;;;-145.18;100.00;46638.91;5072255;28;20068;-65
2023/07/18 06:10:14;;;;;;;11.50;3.50;;;;;;;-145.18;100.00;46640.88;5072599;28;20029;-65
2023/07/18 06:12:39;;;;;;;15.80;2.70;;;;;;;-145.18;100.00;46638.91;5070958;28;20067;-65
2023/07/18 06:15:05;;;;;;;11.53;2.90;;;;;;;-145.18;100.00;46646.72;5071362;28;20039;-65
2023/07/18 06:17:35;;;;;;;12.07;3.13;;;;;;;-145.18;100.00;46642.81;5073711;28;20139;-65
2023/07/18 06:20:02;;;;;;;15.60;3.10;;;;;;;-145.18;100.00;46644.78;5071401;28;20044;-65
2023/07/18 06:22:28;;;;;;;13.70;3.17;;;;;;;-145.18;100.00;46648.69;5068243;28;20045;-65
2023/07/18 06:24:54;;;;;;;12.13;2.73;;;;;;;-145.18;100.00;46648.69;5071536;28;20048;-65
2023/07/18 06:27:19;;;;;;;12.67;3.40;;;;;;;-145.18;100.00;46646.72;5070654;28;20466;-65
2023/07/18 06:29:46;;;;;;;10.67;3.80;;;;;;;-145.18;100.00;46644.78;5071085;28;20111;-65
2023/07/18 06:32:12;;;;;;;15.23;4.93;;;;;;;-145.18;100.00;46646.72;5071004;28;20040;-65
2023/07/18 06:34:40;;;;;;;15.57;3.97;;;;;;;-145.18;100.00;46646.72;5069806;28;20043;-65
2023/07/18 06:37:08;;;;;;;10.33;3.93;;;;;;;-145.18;100.00;46642.81;5071516;28;20021;-65
2023/07/18 06:39:34;;;;;;;13.27;4.90;;;;;;;-145.18;100.00;46646.72;5069796;28;20385;-65
2023/07/18 06:41:59;;;;;;;11.77;5.07;;;;;;;-145.18;100.00;46642.81;5069355;28;20063;-66
2023/07/18 06:44:24;;;;;;;11.67;5.73;;;;;;;-145.18;100.00;46640.88;5070827;28;20358;-65
2023/07/18 06:46:50;;;;;;;12.20;4.73;;;;;;;-145.18;100.00;46644.78;5070427;28;20068;-65
2023/07/18 06:49:18;;;;;;;19.63;5.20;;;;;;;-145.18;100.00;46642.81;5070153;28;20061;-65
2023/07/18 06:51:43;;;;;;;11.37;4.50;;;;;;;-145.18;100.00;46640.88;5070544;28;20047;-65
2023/07/18 06:54:08;;;;;;;13.93;4.57;;;;;;;-145.18;100.00;46640.88;5071351;28;20102;-60
2023/07/18 06:56:34;;;;;;;17.33;5.03;;;;;;;-145.18;100.00;46644.78;5069098;28;20111;-60
2023/07/18 06:59:01;;;;;;;13.43;4.77;;;;;;;-145.18;100.00;46640.88;5071339;28;20028;-60
2023/07/18 07:01:26;;;;;;;10.57;4.37;;;;;;;-145.18;100.00;46636.94;5070058;28;20495;-60
2023/07/18 07:03:51;;;;;;;14.43;4.93;;;;;;;-145.18;100.00;46638.91;5070033;28;20060;-60
2023/07/18 07:06:18;;;;;;;17.13;4.57;;;;;;;-145.18;100.00;46636.94;5070412;28;20058;-60
2023/07/18 07:08:43;;;;;;;17.63;5.50;;;;;;;-145.18;100.00;46640.88;5054908;28;20036;-60
2023/07/18 07:11:09;;;;;;;16.33;4.47;;;;;;;-145.18;100.00;46638.91;5070274;28;20032;-60
2023/07/18 07:13:35;;;;;;;15.83;5.43;;;;;;;-145.18;100.00;46636.94;5070856;28;20032;-60
2023/07/18 07:16:03;;;;;;;13.57;4.43;;;;;;;-145.18;100.00;46640.88;5070418;28;20105;-60
2023/07/18 07:18:29;;;;;;;18.27;5.13;;;;;;;-145.18;100.00;46640.88;5067637;28;20039;-60
2023/07/18 07:20:54;;;;;;;20.20;6.00;;;;;;;-145.18;100.00;46640.88;5070789;28;20032;-60
2023/07/18 07:23:20;;;;;;;16.57;5.63;;;;;;;-145.18;100.00;46636.94;5069792;28;20132;-60
2023/07/18 07:25:45;;;;;;;18.33;5.30;;;;;;;-145.18;100.00;46640.88;5070118;28;20037;-60
2023/07/18 07:28:11;;;;;;;16.67;5.43;;;;;;;-145.18;100.00;46636.94;5070809;28;20139;-59
2023/07/18 07:30:36;;;;;;;11.17;5.10;;;;;;;-145.18;100.00;46635.00;5070359;28;20484;-60
2023/07/18 07:33:07;;;;;;;14.27;4.90;;;;;;;-145.18;100.00;46640.88;5070361;28;20028;-60
2023/07/18 07:35:33;;;;;;;13.03;4.53;;;;;;;-145.18;100.00;46636.94;5070187;28;20037;-60
2023/07/18 07:37:59;;;;;;;18.40;5.30;;;;;;;-145.18;100.00;46638.91;5070076;28;20047;-60
2023/07/18 07:40:25;;;;;;;11.77;4.90;;;;;;;-145.18;100.00;46636.94;5070625;28;20028;-60
2023/07/18 07:42:50;;;;;;;18.80;5.00;;;;;;;-145.18;100.00;46640.88;5069968;28;20031;-60
2023/07/18 07:45:16;;;;;;;12.97;4.30;;;;;;;-145.18;100.00;46646.72;5052821;28;20071;-61
2023/07/18 07:47:42;;;;;;;15.90;4.80;;;;;;;-145.18;100.00;46646.72;5070415;28;20033;-60
2023/07/18 07:50:09;;;;;;;13.77;3.77;;;;;;;-145.18;100.00;46650.63;5069909;28;20028;-60
2023/07/18 07:52:35;;;;;;;10.87;3.67;;;;;;;-145.18;100.00;46662.34;5068762;28;20037;-60
2023/07/18 07:55:01;;;;;;;14.57;4.10;;;;;;;-145.18;100.00;46656.50;5070024;28;20391;-60
2023/07/18 07:57:26;;;;;;;10.03;3.87;;;;;;;-145.18;100.00;46664.31;5067973;28;20413;-60
2023/07/18 07:59:52;;;;;;;9.40;3.60;;;;;;;-145.18;100.00;46664.31;5073664;28;20073;-60
2023/07/18 08:02:19;;;;;;;8.20;3.07;;;;;;;-145.18;100.00;46664.31;5073017;28;20033;-60
2023/07/18 08:04:46;;;;;;;7.57;3.47;;;;;;;-145.18;100.00;46660.41;5075333;28;20066;-60
2023/07/18 08:07:11;;;;;;;11.40;3.40;;;;;;;-145.18;100.00;46664.31;5073354;28;20112;-60
2023/07/18 08:09:37;;;;;;;14.40;3.40;;;;;;;-145.18;100.00;46676.03;5073177;28;21670;-60
2023/07/18 08:12:04;;;;;;;13.30;3.07;;;;;;;-145.18;100.00;46672.13;5073767;28;20054;-60
2023/07/18 08:14:31;;;;;;;10.80;3.20;;;;;;;-145.18;100.00;46672.13;5072879;28;20029;-61
2023/07/18 08:16:57;;;;;;;9.67;3.30;;;;;;;-145.18;100.00;46674.06;5073926;28;20047;-60
2023/07/18 08:19:22;;;;;;;11.70;3.53;;;;;;;-145.18;100.00;46670.16;5073173;28;20041;-60
2023/07/18 08:21:48;;;;;;;7.13;3.00;;;;;;;-145.18;100.00;46670.16;5073072;28;20476;-60
2023/07/18 08:24:14;;;;;;;7.20;3.17;;;;;;;-145.18;100.00;46662.34;5072876;28;20056;-60
2023/07/18 08:26:40;;;;;;;7.30;3.27;;;;;;;-145.18;100.00;46650.63;5073958;28;20028;-60
2023/07/18 08:29:05;;;;;;;8.97;3.13;;;;;;;-145.18;100.00;46633.06;5073130;28;20041;-60
2023/07/18 08:31:31;;;;;;;8.90;3.50;;;;;;;-145.18;100.00;46625.22;5072482;28;20040;-60
2023/07/18 08:33:56;;;;;;;12.20;2.63;;;;;;;-145.18;100.00;46564.69;5071709;28;20036;-60
2023/07/18 08:36:22;;;;;;;8.93;3.27;;;;;;;-145.18;100.00;46562.72;5073727;28;20060;-60
2023/07/18 08:38:50;;;;;;;10.17;3.30;;;;;;;-145.18;100.00;46580.31;5073558;28;20442;-60
2023/07/18 08:41:17;;;;;;;10.13;2.53;;;;;;;-145.18;100.00;46556.88;5072210;28;20051;-60
2023/07/18 08:43:45;;;;;;;10.90;3.43;;;;;;;-145.18;100.00;46535.38;5073017;28;20036;-60
2023/07/18 08:46:15;;;;;;;17.80;3.23;;;;;;;-145.18;100.00;46543.19;5072482;28;20074;-60
2023/07/18 08:48:43;;;;;;;6.83;2.47;;;;;;;-145.18;100.00;46537.34;5063145;28;20040;-60
2023/07/18 08:51:10;;;;;;;10.00;3.53;;;;;;;-145.18;100.00;46539.28;5080438;28;20029;-60
2023/07/18 08:53:37;;;;;;;7.10;2.43;;;;;;;-145.18;100.00;46539.28;5076858;28;20491;-60
2023/07/18 08:56:03;;;;;;;7.37;2.23;;;;;;;-145.18;100.00;46543.19;5072306;28;20531;-60
2023/07/18 08:58:28;;;;;;;9.37;2.67;;;;;;;-145.18;100.00;46545.16;5071579;28;20124;-60
2023/07/18 09:00:54;;;;;;;9.40;2.40;;;;;;;-145.18;100.00;46539.28;5071573;28;20068;-60
2023/07/18 09:03:19;;;;;;;7.37;3.07;;;;;;;-145.18;100.00;46543.19;5073596;28;20032;-60
2023/07/18 09:05:45;;;;;;;12.67;3.07;;;;;;;-145.18;100.00;46551.00;5075583;28;20032;-60
2023/07/18 09:08:10;;;;;;;7.03;2.80;;;;;;;-145.18;100.00;46543.19;5072994;28;20043;-60
2023/07/18 09:10:35;;;;;;;8.53;2.63;;;;;;;-145.18;100.00;46539.28;5072211;28;20032;-60
2023/07/18 09:13:04;;;;;;;7.50;2.87;;;;;;;-145.18;100.00;46554.91;5069233;28;20039;-60
2023/07/18 09:15:32;;;;;;;8.40;2.33;;;;;;;-145.18;100.00;46543.19;5070771;28;20111;-60
2023/07/18 09:17:59;;;;;;;8.50;2.80;;;;;;;-145.18;100.00;46547.09;5071971;28;20476;-60
2023/07/18 09:20:26;;;;;;;10.33;2.77;;;;;;;-145.18;100.00;46529.53;5071888;28;20033;-60
2023/07/18 09:22:56;;;;;;;5.73;2.07;;;;;;;-145.18;100.00;46541.25;5072576;28;20101;-60
2023/07/18 09:25:23;;;;;;;7.03;1.87;;;;;;;-145.18;100.00;46529.53;5072307;28;20040;-60
2023/07/18 09:27:53;;;;;;;10.57;2.17;;;;;;;-145.18;100.00;46554.91;5071023;28;20127;-61
2023/07/18 09:30:26;;;;;;;13.27;2.20;;;;;;;-145.18;100.00;46554.91;5072031;28;20074;-60
2023/07/18 09:32:53;;;;;;;8.33;1.87;;;;;;;-145.18;100.00;46545.16;5072129;28;20062;-60
2023/07/18 09:35:18;;;;;;;8.13;1.77;;;;;;;-145.18;100.00;46543.19;5071709;28;20032;-60
2023/07/18 09:37:48;;;;;;;4.73;1.70;;;;;;;-145.18;100.00;47031.53;5070528;28;20086;-60
2023/07/18 09:40:17;;;;;;;4.63;1.80;;;;;;;-145.18;100.00;47133.13;5072827;28;20082;-60
2023/07/18 09:42:47;;;;;;;5.33;2.10;;;;;;;-145.18;100.00;47152.66;5073229;28;20024;-60
2023/07/18 09:45:14;;;;;;;7.37;1.90;;;;;;;-145.18;100.00;47053.03;5068197;28;20021;-60
2023/07/18 09:47:41;;;;;;;5.60;1.97;;;;;;;-145.18;100.00;47142.91;5072709;28;20062;-60
2023/07/18 09:50:08;;;;;;;6.20;2.07;;;;;;;-145.18;100.00;47109.69;5068326;28;20393;-60
2023/07/18 09:52:38;;;;;;;4.97;1.57;;;;;;;-145.18;100.00;47121.41;5067438;28;20029;-60
2023/07/18 09:55:06;;;;;;;5.60;1.70;;;;;;;-145.18;100.00;47084.28;5073789;28;20027;-60
2023/07/18 09:57:36;;;;;;;3.33;1.30;;;;;;;-145.18;100.00;47066.72;5072746;28;20032;-60
2023/07/18 10:00:05;;;;;;;7.97;2.40;;;;;;;-145.18;100.00;47164.38;5068112;28;20063;-60
2023/07/18 10:02:32;;;;;;;6.23;1.47;;;;;;;-145.18;100.00;46720.94;5071582;28;20067;-61
2023/07/18 10:04:58;;;;;;;6.47;1.63;;;;;;;-145.18;100.00;47158.53;5071823;28;20123;-60
2023/07/18 10:07:24;;;;;;;6.07;1.93;;;;;;;-145.18;100.00;47117.50;5070170;28;20096;-60
2023/07/18 10:09:50;;;;;;;7.20;1.73;;;;;;;-145.18;100.00;47055.00;5074604;28;20087;-60
2023/07/18 10:12:16;;;;;;;6.33;1.67;;;;;;;-145.18;100.00;47074.53;5069349;28;20051;-60
2023/07/18 10:14:41;;;;;;;4.77;1.50;;;;;;;-145.18;100.00;47111.66;5071824;28;20440;-60
2023/07/18 10:17:06;;;;;;;5.33;1.40;;;;;;;-145.18;100.00;47103.81;5070728;28;20036;-60
2023/07/18 10:19:48;;;;;;;4.63;1.37;;;;;;;-145.18;100.00;47060.84;5071515;28;20032;-60
2023/07/18 10:22:27;;;;;;;3.90;1.47;;;;;;;-145.18;100.00;47082.34;5069994;28;20025;-60
2023/07/18 10:24:57;;;;;;;7.93;1.60;;;;;;;-145.18;100.00;47064.75;5069098;28;20140;-65
2023/07/18 10:27:24;;;;;;;3.93;1.40;;;;;;;-145.18;100.00;47066.72;5066840;28;20633;-65
2023/07/18 10:30:22;;;;;;;11.10;1.40;;;;;;;-145.18;100.00;47049.13;5070959;28;20037;-65
2023/07/18 10:32:57;;;;;;;4.47;1.33;;;;;;;-145.18;100.00;47027.63;5046686;28;20060;-65
2023/07/18 10:35:27;;;;;;;5.60;1.60;;;;;;;-145.18;100.00;47035.44;5069735;28;20032;-65
2023/07/18 10:37:53;;;;;;;5.53;2.00;;;;;;;-145.18;100.00;47021.78;5070282;28;20047;-65
2023/07/18 10:40:39;;;;;;;5.57;1.90;;;;;;;-145.18;100.00;47058.91;5070825;28;20093;-65
2023/07/18 10:43:10;;;;;;;4.73;1.10;;;;;;;-145.18;100.00;47090.16;5068838;28;20480;-65
2023/07/18 10:45:39;;;;;;;5.93;1.47;;;;;;;-145.18;100.00;47060.84;5071123;28;20045;-65
2023/07/18 10:48:23;;;;;;;3.03;1.10;;;;;;;-145.18;100.00;47031.53;5068788;28;20033;-65
2023/07/18 10:50:48;;;;;;;3.43;1.20;;;;;;;-145.18;100.00;47012.00;5066735;28;20043;-65
2023/07/18 10:53:17;;;;;;;2.10;1.57;;;;;;;-145.18;100.00;47006.16;5069837;28;20036;-64
2023/07/18 10:55:45;;;;;;;5.13;1.60;;;;;;;-145.18;100.00;47008.09;5070310;28;20032;-64
2023/07/18 10:58:20;;;;;;;4.50;1.50;;;;;;;-145.18;100.00;47010.06;5070833;28;20043;-64
2023/07/18 11:00:47;;;;;;;10.15;1.45;;;;;;;-145.18;100.00;47037.41;5071298;28;20032;-64
2023/07/18 11:03:19;;;;;;;6.47;1.60;;;;;;;-145.18;100.00;47051.09;5068495;28;20028;-64
2023/07/18 11:05:52;;;;;;;3.80;1.20;;;;;;;-145.18;100.00;47021.78;5070358;28;20523;-65